Time;durP1;ratioP1;P1;durP2;ratioP2;P2;SDS_P1;SDS_P2;PMS_P1;PMS_P2;Temp;Humidity;BMP_temperature;BMP_pressure;BME280_temperature;BME280_humidity;BME280_pressure;Samples;Min_cycle;Max_cycle;Signal;HPM_P1;HPM_P2
2021/12/14 00:01:37;;;;;;;12.40;6.80;;;7.60;99.90;;;7.88;71.77;98665.41;5027625;28;20447;-40
2021/12/14 00:04:20;;;;;;;12.27;5.77;;;7.60;99.90;;;7.89;72.04;98669.75;5026383;28;20067;-39
2021/12/14 00:06:50;;;;;;;11.73;7.07;;;7.60;99.90;;;7.80;71.77;98663.34;5026585;28;20051;-40
2021/12/14 00:09:25;;;;;;;11.10;6.57;;;7.50;99.90;;;7.75;72.03;98660.19;5026955;28;20445;-39
2021/12/14 00:15:04;;;;;;;12.33;6.33;;;7.50;99.90;;;7.77;72.12;98663.56;5025861;28;20049;-39
2021/12/14 00:17:46;;;;;;;12.83;7.10;;;7.50;99.90;;;7.73;72.25;98664.78;5026852;28;20041;-40
2021/12/14 00:20:52;;;;;;;13.57;7.20;;;7.50;99.90;;;7.75;72.01;98664.66;5026953;28;20775;-40
2021/12/14 00:26:13;;;;;;;10.03;5.30;;;7.60;99.90;;;7.74;72.13;98668.28;5026029;28;20049;-40
2021/12/14 00:28:42;;;;;;;11.60;6.00;;;7.50;99.90;;;7.74;71.98;98666.47;5025818;28;20243;-40
2021/12/14 00:31:15;;;;;;;13.57;6.97;;;7.50;99.90;;;7.74;71.83;98665.66;5024162;28;20049;-40
2021/12/14 00:33:49;;;;;;;13.03;6.83;;;7.50;99.90;;;7.75;72.18;98678.75;5041306;28;20045;-40
2021/12/14 00:36:17;;;;;;;;;;;7.60;99.90;;;7.67;72.16;98678.50;5026788;28;20049;-40
2021/12/14 00:38:49;;;;;;;12.33;5.80;;;7.50;99.90;;;7.70;72.31;98672.97;5027162;28;20219;-40
2021/12/14 00:41:24;;;;;;;9.50;5.97;;;7.50;99.90;;;7.72;72.14;98671.06;5028652;28;20045;-40
2021/12/14 00:43:53;;;;;;;11.17;5.40;;;7.50;99.90;;;7.67;71.91;98678.50;5026279;28;20075;-40
2021/12/14 00:46:21;;;;;;;7.70;5.10;;;7.40;99.90;;;7.54;72.17;98675.97;5026920;28;20051;-40
2021/12/14 00:48:50;;;;;;;8.30;5.40;;;7.30;99.90;;;7.47;72.13;98685.34;5025342;28;20057;-40
2021/12/14 00:51:22;;;;;;;8.83;5.23;;;7.20;99.90;;;7.48;72.19;98685.22;5028282;28;20057;-40
2021/12/14 00:53:50;;;;;;;9.80;5.67;;;7.20;99.90;;;7.38;71.76;98689.50;5026439;28;20064;-40
2021/12/14 00:56:19;;;;;;;8.53;5.03;;;7.10;99.90;;;7.30;71.79;98679.50;5026505;28;20359;-40
2021/12/14 00:58:47;;;;;;;8.87;5.60;;;7.10;99.90;;;7.22;72.27;98681.03;5026620;28;20053;-40
2021/12/14 01:01:32;;;;;;;9.03;5.80;;;6.90;99.90;;;7.18;72.05;98687.53;5024804;28;20057;-40
2021/12/14 01:04:09;;;;;;;9.35;6.15;;;6.90;99.90;;;7.07;72.47;98697.09;5025888;28;20269;-40
2021/12/14 01:06:44;;;;;;;9.43;5.20;;;6.80;99.90;;;7.05;72.74;98700.81;5026144;28;20361;-40
2021/12/14 01:09:22;;;;;;;7.33;4.70;;;6.80;99.90;;;7.00;72.79;98695.00;5025493;28;20065;-40
2021/12/14 01:11:52;;;;;;;7.40;4.77;;;6.70;99.90;;;6.99;72.54;98706.56;5025158;28;20056;-39
2021/12/14 01:14:29;;;;;;;7.20;4.73;;;6.70;99.90;;;7.02;72.35;98699.25;5023873;28;20059;-40
2021/12/14 01:17:25;;;;;;;9.53;5.23;;;6.80;99.90;;;7.00;72.39;98700.31;5024393;28;20057;-40
2021/12/14 01:19:59;;;;;;;8.13;4.73;;;6.80;99.90;;;6.90;71.80;98701.00;5027005;28;20061;-40
2021/12/14 01:25:17;;;;;;;7.90;5.17;;;6.60;99.90;;;6.80;72.29;98705.25;5024349;28;20057;-40
2021/12/14 01:28:11;;;;;;;10.97;6.37;;;6.60;99.90;;;6.68;72.64;98708.81;5027289;28;20057;-40
2021/12/14 01:33:32;;;;;;;13.17;5.33;;;6.20;99.90;;;6.39;72.72;98718.81;5025051;28;20049;-39
2021/12/14 01:36:07;;;;;;;9.27;5.93;;;6.10;99.90;;;6.45;72.67;98721.03;5026293;28;20379;-39
2021/12/14 01:38:47;;;;;;;8.80;5.60;;;6.10;99.90;;;6.46;72.80;98723.56;5025091;28;20055;-40
2021/12/14 01:41:16;;;;;;;9.33;5.90;;;6.20;99.90;;;6.49;72.78;98717.19;5025852;28;20056;-40
2021/12/14 01:43:56;;;;;;;7.77;5.40;;;6.20;99.90;;;6.41;72.47;98715.09;5025446;28;20057;-40
2021/12/14 01:46:48;;;;;;;11.30;6.07;;;6.10;99.90;;;6.36;72.80;98719.88;5024520;28;20522;-40
2021/12/14 01:49:36;;;;;;;9.30;5.67;;;6.10;99.90;;;6.42;73.17;98711.50;5024665;28;20061;-40
2021/12/14 01:52:26;;;;;;;10.43;5.70;;;6.10;99.90;;;6.53;72.96;98713.38;5040854;28;20061;-40
2021/12/14 01:55:23;;;;;;;10.77;5.63;;;6.30;99.90;;;6.59;72.29;98717.38;5023111;28;20512;-40
2021/12/14 01:57:55;;;;;;;8.10;4.97;;;6.40;99.90;;;6.57;72.34;98716.66;5024629;28;20053;-39
2021/12/14 02:00:36;;;;;;;8.23;4.97;;;6.30;99.90;;;6.64;72.87;98717.91;5028261;28;20204;-39
2021/12/14 02:03:08;;;;;;;6.63;4.17;;;6.40;99.90;;;6.65;72.77;98725.75;5045106;28;20057;-40
2021/12/14 02:05:47;;;;;;;6.67;4.10;;;6.40;99.90;;;6.63;72.58;98719.72;5028986;28;20267;-40
2021/12/14 02:08:23;;;;;;;5.70;4.03;;;6.50;99.90;;;6.63;72.31;98717.09;5028817;28;20053;-39
2021/12/14 02:10:57;;;;;;;8.00;4.00;;;6.40;99.90;;;6.67;72.20;98712.41;5028567;28;20061;-39
2021/12/14 02:13:46;;;;;;;7.07;4.27;;;6.40;99.90;;;6.69;72.56;98716.63;5012239;28;20045;-39
2021/12/14 02:16:20;;;;;;;;;;;6.40;99.90;;;6.67;71.82;98713.25;5028104;28;20057;-40
2021/12/14 02:19:07;;;;;;;5.43;3.20;;;6.40;99.90;;;6.72;72.28;98710.25;5028823;28;20231;-39
2021/12/14 02:21:37;;;;;;;6.27;4.03;;;6.40;99.90;;;6.75;72.19;98714.50;5028860;28;20254;-40
2021/12/14 02:24:08;;;;;;;8.13;4.43;;;6.40;99.90;;;6.78;72.50;98714.28;5027664;28;20254;-40
2021/12/14 02:26:41;;;;;;;8.57;4.83;;;6.50;99.90;;;6.78;72.13;98715.09;5025573;28;20107;-39
2021/12/14 02:29:23;;;;;;;8.63;5.53;;;6.50;99.90;;;6.74;71.79;98711.00;5026910;28;20053;-40
2021/12/14 02:31:52;;;;;;;8.47;5.30;;;6.40;99.90;;;6.77;72.50;98717.88;5026588;28;20057;-40
2021/12/14 02:34:21;;;;;;;5.40;3.83;;;6.40;99.90;;;6.74;72.27;98710.16;5027925;28;20053;-40
2021/12/14 02:36:49;;;;;;;5.23;3.70;;;6.40;99.90;;;6.75;72.10;98703.94;5026718;28;20065;-40
2021/12/14 02:42:21;;;;;;;5.43;3.70;;;6.40;99.90;;;6.71;72.39;98711.25;5027965;28;20063;-39
2021/12/14 02:44:54;;;;;;;9.40;4.53;;;6.40;99.90;;;6.68;72.34;98703.50;5026895;28;20068;-40
2021/12/14 02:47:24;;;;;;;5.13;2.70;;;6.30;99.90;;;6.67;71.60;98707.97;5028022;28;20049;-39
2021/12/14 02:49:52;;;;;;;5.10;2.93;;;6.30;99.90;;;6.66;72.11;98705.41;5026242;28;20442;-39
2021/12/14 02:52:36;;;;;;;6.13;3.70;;;6.30;99.90;;;6.66;71.81;98703.59;5027673;28;20061;-40
2021/12/14 02:55:25;;;;;;;7.88;3.80;;;6.40;99.90;;;6.66;71.94;98697.47;5027884;28;20053;-39
2021/12/14 02:57:58;;;;;;;6.43;3.40;;;6.50;99.90;;;6.66;72.31;98700.97;5044266;28;20252;-39
2021/12/14 03:00:38;;;;;;;5.53;3.25;;;6.40;99.90;;;6.63;71.46;98690.63;5027405;28;20053;-39
2021/12/14 03:03:12;;;;;;;7.50;4.37;;;6.40;99.90;;;6.65;71.92;98698.41;5025566;28;20405;-39
2021/12/14 03:05:45;;;;;;;7.63;4.30;;;6.30;99.90;;;6.64;71.86;98697.59;5027794;28;20049;-40
2021/12/14 03:08:25;;;;;;;9.83;4.43;;;6.30;99.90;;;6.62;71.60;98699.50;5027515;28;20053;-39
2021/12/14 03:11:12;;;;;;;12.90;7.87;;;6.30;99.90;;;6.61;71.90;98691.66;5028543;28;20045;-39
2021/12/14 03:13:51;;;;;;;6.63;4.57;;;6.30;99.90;;;6.58;71.76;98692.75;5027644;28;20430;-40
2021/12/14 03:16:34;;;;;;;6.23;3.93;;;6.30;99.90;;;6.59;71.54;98694.44;5027728;28;20061;-40
2021/12/14 03:19:08;;;;;;;6.10;4.00;;;6.30;99.90;;;6.58;72.28;98686.63;5026592;28;20061;-40
2021/12/14 03:21:41;;;;;;;6.37;3.27;;;6.30;99.90;;;6.55;71.50;98687.66;5044269;28;20064;-39
2021/12/14 03:24:14;;;;;;;6.10;3.40;;;6.20;99.90;;;6.54;72.24;98688.63;5027535;28;20042;-39
2021/12/14 03:26:47;;;;;;;5.70;3.60;;;6.20;99.90;;;6.55;72.21;98692.09;5027476;28;20279;-39
2021/12/14 03:29:24;;;;;;;5.68;3.53;;;6.20;99.90;;;6.53;72.17;98696.66;5028185;28;20054;-39
2021/12/14 03:31:56;;;;;;;4.70;3.30;;;6.20;99.90;;;6.53;71.56;98702.78;5027067;28;20041;-39
2021/12/14 03:34:37;;;;;;;6.07;3.60;;;6.20;99.90;;;6.49;71.87;98709.25;5026612;28;20059;-40
2021/12/14 03:37:21;;;;;;;6.87;4.37;;;6.10;99.90;;;6.49;71.99;98719.84;5042277;28;20049;-39
2021/12/14 03:39:57;;;;;;;;;;;6.10;99.90;;;6.44;71.83;98706.97;5027791;28;20251;-39
2021/12/14 03:42:38;;;;;;;5.80;3.37;;;6.10;99.90;;;6.45;71.50;98711.28;5026766;28;19923;-39
2021/12/14 03:45:18;;;;;;;6.87;3.33;;;6.00;99.90;;;6.45;71.83;98702.50;5024843;28;20053;-40
2021/12/14 03:47:59;;;;;;;6.20;3.63;;;6.00;99.90;;;6.43;71.83;98707.91;5026058;28;20381;-40
2021/12/14 03:50:41;;;;;;;6.40;3.53;;;6.00;99.90;;;6.41;71.36;98722.19;5027831;28;20560;-39
2021/12/14 03:53:12;;;;;;;6.87;3.30;;;6.00;99.90;;;6.41;71.63;98722.19;5027333;28;20444;-39
2021/12/14 03:55:46;;;;;;;5.20;3.33;;;6.00;99.90;;;6.42;72.16;98731.84;5026728;28;20057;-39
2021/12/14 03:58:23;;;;;;;7.72;3.78;;;6.00;99.90;;;6.38;72.36;98725.03;5042914;28;20053;-39
2021/12/14 04:01:05;;;;;;;7.00;4.17;;;6.00;99.90;;;6.35;71.58;98718.19;5025871;28;20050;-40
2021/12/14 04:03:41;;;;;;;12.63;4.03;;;5.90;99.90;;;6.36;72.07;98717.25;5025561;28;20402;-39
2021/12/14 04:06:14;;;;;;;7.73;4.10;;;6.00;99.90;;;6.36;71.71;98714.59;5026483;28;20053;-39
2021/12/14 04:08:43;;;;;;;8.60;4.10;;;5.90;99.90;;;6.31;72.54;98700.84;5025920;28;20061;-39
2021/12/14 04:11:14;;;;;;;6.97;3.90;;;6.00;99.90;;;6.30;72.10;98692.06;5027527;28;20216;-40
2021/12/14 04:13:49;;;;;;;8.50;4.57;;;6.00;99.90;;;6.28;72.12;98688.69;5027118;28;20259;-39
2021/12/14 04:16:26;;;;;;;7.57;4.37;;;6.00;99.90;;;6.29;71.75;98695.66;5023305;28;20059;-40
2021/12/14 04:19:03;;;;;;;7.77;4.00;;;6.00;99.90;;;6.24;71.73;98681.94;5025612;28;20057;-40
2021/12/14 04:21:38;;;;;;;10.90;4.60;;;6.00;99.90;;;6.26;72.26;98695.91;5024617;28;20059;-39
2021/12/14 04:24:12;;;;;;;9.27;4.63;;;6.00;99.90;;;6.27;72.01;98691.44;5025455;28;20053;-39
2021/12/14 04:26:44;;;;;;;8.33;5.00;;;6.00;99.90;;;6.25;72.53;98690.72;5025659;28;20061;-39
2021/12/14 04:29:15;;;;;;;6.87;4.57;;;5.90;99.90;;;6.27;72.16;98684.34;5026021;28;20093;-39
2021/12/14 04:31:45;;;;;;;6.63;3.90;;;5.90;99.90;;;6.29;71.77;98679.78;5025022;28;20082;-39
2021/12/14 04:34:20;;;;;;;9.90;4.13;;;5.90;99.90;;;6.29;71.89;98684.25;5026143;28;20041;-40
2021/12/14 04:36:52;;;;;;;9.67;4.47;;;5.90;99.90;;;6.30;71.98;98670.03;5027321;28;20057;-39
2021/12/14 04:53:22;;;;;;;6.63;3.60;;;5.80;99.90;;;6.17;71.64;98663.97;5026047;28;20045;-39
2021/12/14 04:55:56;;;;;;;6.27;3.73;;;5.80;99.90;;;6.17;71.81;98659.50;5025255;28;20059;-39
2021/12/14 04:58:33;;;;;;;6.27;3.90;;;5.80;99.90;;;6.19;71.76;98670.00;5025927;28;20064;-39
2021/12/14 05:01:07;;;;;;;6.70;3.67;;;5.80;99.90;;;6.17;71.83;98663.97;5026600;28;20057;-40
2021/12/14 05:03:59;;;;;;;6.00;4.35;;;5.80;99.90;;;6.16;71.67;98656.97;5026235;28;20063;-39
2021/12/14 05:06:44;;;;;;;8.57;4.07;;;5.80;99.90;;;6.16;71.84;98656.97;5024868;28;20053;-39
2021/12/14 05:09:24;;;;;;;8.57;3.67;;;5.80;99.90;;;6.15;72.18;98660.59;5025834;28;20271;-39
2021/12/14 05:12:08;;;;;;;7.82;4.07;;;5.70;99.90;;;6.11;71.74;98654.66;5024813;28;20054;-39
2021/12/14 05:14:47;;;;;;;6.67;3.70;;;5.70;99.90;;;6.12;72.11;98690.72;5025453;28;20346;-39
2021/12/14 05:17:23;;;;;;;7.93;3.53;;;5.80;99.90;;;6.11;71.48;98678.47;5025689;28;20255;-39
2021/12/14 05:19:53;;;;;;;7.97;3.40;;;5.70;99.90;;;6.05;71.54;98682.38;5026135;28;20057;-39
2021/12/14 05:22:33;;;;;;;6.43;3.63;;;5.70;99.90;;;6.03;71.85;98675.47;5025532;28;20051;-39
2021/12/14 05:25:21;;;;;;;8.43;4.10;;;5.60;99.90;;;6.03;71.88;98671.06;5024943;28;20053;-39
2021/12/14 05:27:59;;;;;;;6.23;3.67;;;5.60;99.90;;;5.96;72.02;98659.22;5024151;28;20049;-40
2021/12/14 05:30:40;;;;;;;7.40;3.73;;;5.50;99.90;;;5.95;71.99;98657.50;5025051;28;20367;-39
2021/12/14 05:33:41;;;;;;;5.93;3.53;;;5.50;99.90;;;5.93;72.24;98638.25;5029941;28;20053;-39
2021/12/14 05:36:29;;;;;;;8.20;3.80;;;5.50;99.90;;;5.91;72.30;98632.22;5029728;28;20071;-40
2021/12/14 05:39:06;;;;;;;8.50;4.63;;;5.50;99.90;;;5.94;72.00;98639.13;5028651;28;20055;-40
2021/12/14 05:44:54;;;;;;;7.53;4.30;;;5.60;99.90;;;5.97;71.82;98653.00;5028640;28;20061;-40
2021/12/14 05:47:24;;;;;;;10.83;4.40;;;5.60;99.90;;;5.99;72.13;98651.09;5012675;28;20057;-39
2021/12/14 05:50:02;;;;;;;8.57;4.40;;;5.60;99.90;;;5.98;71.63;98657.31;5029803;28;20259;-39
2021/12/14 05:52:31;;;;;;;7.60;4.87;;;5.60;99.90;;;5.94;72.03;98658.44;5027959;28;20053;-40
2021/12/14 05:55:10;;;;;;;9.87;5.10;;;5.50;99.90;;;5.91;71.71;98646.31;5028267;28;20054;-39
2021/12/14 05:57:39;;;;;;;14.93;4.80;;;5.50;99.90;;;5.89;72.35;98642.06;5027451;28;20045;-39
2021/12/14 06:00:13;;;;;;;9.47;4.60;;;5.40;99.90;;;5.84;71.72;98633.63;5028579;28;20343;-39
2021/12/14 06:02:46;;;;;;;9.17;5.10;;;5.40;99.90;;;5.80;71.60;98630.34;5033835;28;20037;-40
2021/12/14 06:05:20;;;;;;;8.43;4.87;;;5.40;99.90;;;5.78;72.01;98621.69;5029143;28;20053;-39
2021/12/14 06:07:50;;;;;;;7.57;4.63;;;5.40;99.90;;;5.81;72.07;98639.94;5028742;28;20053;-40
2021/12/14 06:10:23;;;;;;;8.50;4.30;;;5.50;99.90;;;5.84;72.65;98655.59;5029942;28;20493;-40
2021/12/14 06:12:53;;;;;;;8.33;5.07;;;5.50;99.90;;;5.87;72.28;98643.97;5028495;28;20083;-40
2021/12/14 06:15:27;;;;;;;7.90;4.37;;;5.50;99.90;;;5.87;72.25;98638.69;5027089;28;20063;-40
2021/12/14 06:18:05;;;;;;;8.85;4.40;;;5.60;99.90;;;5.86;72.11;98631.72;5028015;28;20348;-40
2021/12/14 06:21:07;;;;;;;9.23;5.10;;;5.50;99.90;;;5.86;72.53;98634.38;5027645;28;20053;-39
2021/12/14 06:23:39;;;;;;;53.57;34.17;;;5.50;99.90;;;5.83;72.05;98624.00;5027824;28;20061;-40
2021/12/14 06:26:19;;;;;;;70.63;47.10;;;5.60;99.90;;;5.85;72.23;98616.81;5025750;28;20053;-40
2021/12/14 06:28:47;;;;;;;17.20;12.50;;;5.60;99.90;;;5.84;72.08;98633.63;5027939;28;20061;-39
2021/12/14 06:31:24;;;;;;;9.00;5.40;;;5.50;99.90;;;5.83;71.42;98640.69;5029013;28;20426;-39
2021/12/14 06:33:52;;;;;;;7.57;3.83;;;5.50;99.90;;;5.85;71.90;98641.44;5027047;28;20048;-40
2021/12/14 06:36:52;;;;;;;7.57;4.63;;;5.50;99.90;;;5.80;71.20;98638.28;5029107;28;20050;-40
2021/12/14 06:39:21;;;;;;;9.63;5.40;;;5.50;99.90;;;5.78;71.93;98626.09;5028682;28;20367;-40
2021/12/14 06:41:49;;;;;;;12.10;8.33;;;5.40;99.90;;;5.77;72.34;98612.06;5027645;28;20050;-40
2021/12/14 06:44:19;;;;;;;8.40;5.80;;;5.40;99.90;;;5.80;71.76;98622.41;5026571;28;20347;-44
2021/12/14 06:46:47;;;;;;;8.50;5.33;;;5.40;99.90;;;5.82;72.08;98623.16;5027799;28;20068;-44
2021/12/14 06:49:23;;;;;;;5.33;4.00;;;5.50;99.90;;;5.79;72.12;98631.28;5028012;28;20347;-46
2021/12/14 06:51:57;;;;;;;11.27;6.77;;;5.40;99.90;;;5.76;71.97;98618.31;5027313;28;20176;-45
2021/12/14 06:54:35;;;;;;;18.57;11.93;;;5.40;99.90;;;5.75;71.80;98595.47;5045098;28;20049;-48
2021/12/14 06:57:05;;;;;;;18.40;10.73;;;5.30;99.90;;;5.71;71.43;98583.44;5027853;28;20048;-45
2021/12/14 06:59:34;;;;;;;25.77;16.53;;;5.20;99.90;;;5.67;71.39;98581.94;5028199;28;20040;-45
2021/12/14 07:02:08;;;;;;;20.50;14.07;;;5.20;99.90;;;5.68;71.53;98575.69;5032751;28;20055;-46
2021/12/14 07:04:51;;;;;;;12.05;8.02;;;5.30;99.90;;;5.71;71.89;98580.78;5026230;28;20064;-46
2021/12/14 07:07:27;;;;;;;8.83;5.30;;;5.40;99.90;;;5.73;71.68;98592.09;5026726;28;20053;-45
2021/12/14 07:10:01;;;;;;;6.17;4.20;;;5.40;99.90;;;5.72;70.93;98585.97;5011451;28;20087;-44
2021/12/14 07:12:35;;;;;;;7.53;4.80;;;5.40;99.90;;;5.70;71.92;98577.31;5028320;28;20236;-44
2021/12/14 07:15:25;;;;;;;5.73;4.13;;;5.30;99.90;;;5.63;71.17;98576.03;5028000;28;20366;-44
2021/12/14 07:18:04;;;;;;;5.60;3.43;;;5.30;99.90;;;5.65;71.02;98574.13;5027091;28;20508;-45
2021/12/14 07:20:44;;;;;;;5.90;4.03;;;5.30;99.90;;;5.63;71.37;98589.25;5027623;28;20041;-45
2021/12/14 07:23:20;;;;;;;8.77;6.60;;;5.30;99.90;;;5.67;71.14;98605.72;5027214;28;20053;-45
2021/12/14 07:26:01;;;;;;;7.73;4.67;;;5.30;99.90;;;5.68;71.03;98604.75;5027328;28;20045;-44
2021/12/14 07:28:42;;;;;;;9.10;6.27;;;5.30;99.90;;;5.64;71.56;98600.66;5027691;28;20049;-49
2021/12/14 07:31:20;;;;;;;7.07;5.07;;;5.20;99.90;;;5.58;70.79;98606.34;5028261;28;20514;-45
2021/12/14 07:33:58;;;;;;;5.67;4.00;;;5.20;99.90;;;5.53;70.47;98604.06;5026922;28;20049;-44
2021/12/14 07:36:31;;;;;;;5.87;3.67;;;5.10;99.90;;;5.49;71.13;98605.22;5026893;28;20463;-47
2021/12/14 07:39:12;;;;;;;6.70;4.85;;;5.00;99.90;;;5.46;70.45;98603.59;5026445;28;20068;-44
2021/12/14 07:41:48;;;;;;;12.57;7.57;;;5.00;99.90;;;5.50;71.14;98613.00;5028597;28;20348;-46
2021/12/14 07:44:33;;;;;;;12.27;7.50;;;5.10;99.90;;;5.50;70.72;98604.25;5027653;28;20065;-46
2021/12/14 07:47:14;;;;;;;7.10;4.77;;;5.20;99.90;;;5.54;70.69;98600.44;5028674;28;20071;-47
2021/12/14 07:49:55;;;;;;;6.53;3.77;;;5.20;99.90;;;5.55;70.74;98593.38;5027374;28;20126;-47
2021/12/14 07:52:43;;;;;;;6.23;4.20;;;5.20;99.90;;;5.58;70.96;98595.78;5032098;28;20075;-44
2021/12/14 07:55:20;;;;;;;6.60;4.20;;;5.20;99.90;;;5.60;70.68;98615.84;5033753;28;20064;-46
2021/12/14 07:57:58;;;;;;;7.17;4.03;;;5.30;99.90;;;5.45;70.60;98631.00;5035325;28;20340;-44
2021/12/14 08:00:40;;;;;;;6.50;4.83;;;5.10;99.90;;;5.40;70.91;98650.72;5036947;28;20136;-44
2021/12/14 08:03:12;;;;;;;7.07;4.40;;;5.00;99.90;;;5.38;70.91;98657.91;5037182;28;21010;-45
2021/12/14 08:05:48;;;;;;;9.77;4.83;;;5.00;99.90;;;5.39;70.60;98671.03;5037278;28;20067;-44
2021/12/14 08:08:48;;;;;;;6.10;4.07;;;5.00;99.90;;;5.30;70.25;98672.47;5037737;28;20061;-46
2021/12/14 08:11:47;;;;;;;8.40;4.03;;;4.90;99.90;;;5.33;71.24;98674.06;5025301;28;20057;-45
2021/12/14 08:14:26;;;;;;;8.37;5.27;;;4.90;99.90;;;5.40;71.66;98682.44;5039618;28;20046;-45
2021/12/14 08:17:06;;;;;;;7.07;4.70;;;5.10;99.90;;;5.46;71.32;98687.28;5039082;28;20231;-46
2021/12/14 08:19:42;;;;;;;5.13;4.07;;;5.20;99.90;;;5.52;70.46;98693.03;5037620;28;20055;-44
2021/12/14 08:22:34;;;;;;;5.93;3.50;;;5.30;99.90;;;5.46;70.94;98698.69;5038603;28;20048;-44
2021/12/14 08:25:10;;;;;;;7.93;4.33;;;5.20;99.90;;;5.45;71.06;98696.19;5037376;28;20371;-44
2021/12/14 08:27:42;;;;;;;5.37;3.70;;;5.10;99.90;;;5.42;70.97;98675.25;5037728;28;20080;-47
2021/12/14 08:30:15;;;;;;;5.73;3.80;;;5.10;99.90;;;5.45;70.64;98677.69;5036104;28;20045;-45
2021/12/14 08:32:48;;;;;;;5.45;2.97;;;5.10;99.90;;;5.47;71.30;98662.59;5035029;28;20053;-44
2021/12/14 08:35:16;;;;;;;4.77;3.40;;;5.10;99.90;;;5.52;71.10;98669.25;5037272;28;20048;-46
2021/12/14 08:37:58;;;;;;;4.77;3.10;;;5.20;99.90;;;5.57;71.48;98671.56;5037071;28;20038;-44
2021/12/14 08:40:43;;;;;;;5.70;3.77;;;5.30;99.90;;;5.59;70.71;98671.47;5038387;28;20339;-44
2021/12/14 08:43:26;;;;;;;5.00;3.80;;;5.30;99.90;;;5.58;71.23;98673.25;5037328;28;20067;-44
2021/12/14 08:46:10;;;;;;;4.77;3.50;;;5.30;99.90;;;5.62;70.52;98674.75;5036825;28;20347;-44
2021/12/14 08:48:47;;;;;;;6.47;4.18;;;5.30;99.90;;;5.57;70.99;98668.91;5037224;28;20253;-47
2021/12/14 08:51:40;;;;;;;5.43;3.70;;;5.30;99.90;;;5.62;70.42;98660.66;5036135;28;20064;-45
2021/12/14 08:54:34;;;;;;;5.70;4.10;;;5.30;99.90;;;5.59;70.95;98666.19;5037262;28;20347;-49
2021/12/14 08:57:18;;;;;;;6.67;4.87;;;5.30;99.90;;;5.52;71.07;98677.19;5038295;28;20049;-45
2021/12/14 08:59:53;;;;;;;6.17;4.50;;;5.20;99.90;;;5.48;70.95;98675.66;5035275;28;20043;-45
2021/12/14 09:02:25;;;;;;;7.27;3.87;;;5.20;99.90;;;5.50;71.66;98675.56;5038385;28;20052;-46
2021/12/14 09:05:15;;;;;;;5.97;4.40;;;5.20;99.90;;;5.56;71.17;98690.16;5039113;28;20064;-44
2021/12/14 09:07:44;;;;;;;5.80;4.27;;;5.30;99.90;;;5.58;70.79;98704.09;5040597;28;20049;-46
2021/12/14 09:10:24;;;;;;;6.50;3.87;;;5.30;99.90;;;5.45;70.77;98691.72;5042719;28;20061;-45
2021/12/14 09:13:03;;;;;;;5.73;3.83;;;5.20;99.90;;;5.43;71.45;98677.78;5040889;28;20352;-45
2021/12/14 09:15:50;;;;;;;5.67;4.10;;;5.20;99.90;;;5.48;70.95;98694.16;5043260;28;20243;-44
2021/12/14 09:18:23;;;;;;;5.37;3.80;;;5.20;99.90;;;5.59;72.11;98692.59;5041867;28;20067;-45
2021/12/14 09:21:06;;;;;;;6.67;4.60;;;5.40;99.90;;;5.67;71.68;98677.91;5041085;28;20053;-45
2021/12/14 09:23:41;;;;;;;7.82;5.55;;;5.40;99.90;;;5.71;71.16;98682.03;5042258;28;20254;-45
2021/12/14 09:26:20;;;;;;;8.70;5.23;;;5.50;99.90;;;5.74;70.59;98673.06;5042405;28;20348;-45
2021/12/14 09:28:51;;;;;;;8.50;7.37;;;5.50;99.90;;;5.78;71.11;98684.25;5041843;28;20049;-46
2021/12/14 09:31:30;;;;;;;6.63;5.30;;;5.50;99.90;;;5.75;70.60;98689.75;5037642;28;20048;-44
2021/12/14 09:34:00;;;;;;;7.53;4.73;;;5.50;99.90;;;5.79;71.33;98689.41;5038792;28;20366;-45
2021/12/14 09:36:32;;;;;;;9.90;5.60;;;5.50;99.90;;;5.80;71.16;98693.78;5039504;28;20347;-45
2021/12/14 09:39:12;;;;;;;8.90;5.37;;;5.60;99.90;;;5.80;71.71;98696.41;5040525;28;20049;-45
2021/12/14 09:41:44;;;;;;;30.40;10.87;;;5.60;99.90;;;5.87;71.66;98691.53;5042005;28;20239;-45
2021/12/14 09:44:19;;;;;;;9.93;5.97;;;5.60;99.90;;;5.91;71.79;98703.59;5039459;28;20042;-46
2021/12/14 09:46:49;;;;;;;8.83;5.97;;;5.70;99.90;;;5.90;71.19;98707.19;5041251;28;20045;-48
2021/12/14 09:49:20;;;;;;;6.70;4.93;;;5.70;99.90;;;5.90;71.44;98701.91;5040998;28;20059;-46
2021/12/14 09:51:56;;;;;;;11.13;6.07;;;5.70;99.90;;;5.91;70.99;98695.66;5041769;28;20053;-44
2021/12/14 09:54:28;;;;;;;10.73;6.13;;;5.70;99.90;;;5.88;71.46;98693.25;5039741;28;20228;-45
2021/12/14 09:57:13;;;;;;;8.57;6.40;;;5.60;99.90;;;5.88;71.56;98694.09;5041346;28;20052;-45
2021/12/14 09:59:42;;;;;;;10.17;6.13;;;5.60;99.90;;;5.90;71.77;98702.75;5040878;28;20056;-45
2021/12/14 10:02:18;;;;;;;9.93;6.27;;;5.60;99.90;;;5.90;71.23;98707.19;5041248;28;20049;-44
2021/12/14 10:04:55;;;;;;;9.73;6.33;;;5.60;99.90;;;5.94;71.05;98691.97;5040883;28;20041;-45
2021/12/14 10:07:25;;;;;;;9.30;6.97;;;5.70;99.90;;;5.98;71.74;98701.41;5041030;28;20068;-44
2021/12/14 10:09:57;;;;;;;10.27;6.93;;;5.80;99.90;;;5.87;72.06;98699.47;5040264;28;20339;-44
2021/12/14 10:12:52;;;;;;;9.67;6.60;;;5.60;99.90;;;5.88;71.01;98698.53;5038753;28;20054;-46
2021/12/14 10:15:48;;;;;;;10.80;6.78;;;5.60;99.90;;;5.82;71.23;98694.50;5040740;28;20049;-44
2021/12/14 10:18:31;;;;;;;10.90;7.23;;;5.50;99.90;;;5.82;71.09;98685.75;5035707;28;20061;-45
2021/12/14 10:21:26;;;;;;;12.07;7.60;;;5.50;99.90;;;5.80;71.42;98687.66;5040334;28;20067;-44
2021/12/14 10:23:55;;;;;;;12.32;7.85;;;5.50;99.90;;;5.81;71.91;98689.31;5040644;28;20053;-44
2021/12/14 10:26:31;;;;;;;12.75;7.82;;;5.50;99.90;;;5.81;71.96;98684.03;5039908;28;20409;-44
2021/12/14 10:29:00;;;;;;;11.83;7.53;;;5.50;99.90;;;5.80;71.89;98670.00;5039389;28;20045;-45
2021/12/14 10:31:45;;;;;;;10.67;6.40;;;5.60;99.90;;;5.81;71.29;98676.94;5039523;28;20053;-47
2021/12/14 10:34:21;;;;;;;11.83;6.73;;;5.60;99.90;;;5.83;72.38;98667.13;5039504;28;20047;-45
2021/12/14 10:37:06;;;;;;;22.17;12.93;;;5.60;99.90;;;5.82;71.59;98683.94;5040578;28;20056;-45
2021/12/14 10:39:40;;;;;;;31.93;11.83;;;5.60;99.90;;;5.85;71.78;98686.34;5040087;28;20053;-45
2021/12/14 10:45:07;;;;;;;14.87;6.87;;;5.70;99.90;;;5.95;71.84;98683.94;5040856;28;20045;-47
2021/12/14 10:47:35;;;;;;;12.48;8.75;;;5.70;99.90;;;5.80;72.43;98683.19;5039810;28;20046;-44
2021/12/14 10:50:10;;;;;;;13.10;6.93;;;5.60;99.90;;;5.79;72.65;98686.78;5038826;28;20060;-45
2021/12/14 10:52:42;;;;;;;12.57;7.43;;;5.50;99.90;;;5.80;72.63;98690.28;5039550;28;20038;-44
2021/12/14 10:55:34;;;;;;;13.77;6.93;;;5.60;99.90;;;5.85;72.68;98686.34;5039147;28;20049;-43
2021/12/14 10:58:06;;;;;;;16.30;7.07;;;5.60;99.90;;;5.84;72.43;98686.47;5040337;28;20248;-44
2021/12/14 11:01:05;;;;;;;13.30;6.17;;;5.60;99.90;;;5.83;72.65;98682.97;5040768;28;20060;-44
2021/12/14 11:03:52;;;;;;;11.73;6.30;;;5.60;99.90;;;5.85;72.57;98691.63;5039659;28;20363;-44
2021/12/14 11:06:28;;;;;;;12.70;6.67;;;5.70;99.90;;;5.89;72.88;98690.50;5040384;28;20059;-44
2021/12/14 11:11:44;;;;;;;12.53;7.17;;;5.60;99.90;;;5.89;72.66;98690.50;5040381;28;20051;-47
2021/12/14 11:14:19;;;;;;;30.97;7.10;;;5.70;99.90;;;5.87;72.62;98687.13;5039023;28;20389;-44
2021/12/14 11:19:55;;;;;;;23.57;7.20;;;5.80;99.90;;;5.97;73.14;98678.56;5039533;28;20052;-46
2021/12/14 11:22:56;;;;;;;14.43;7.03;;;5.80;99.90;;;6.01;72.41;98670.31;5040044;28;20049;-43
2021/12/14 11:25:51;;;;;;;18.90;9.00;;;5.80;99.90;;;6.11;72.14;98681.09;5037982;28;20243;-45
2021/12/14 11:28:52;;;;;;;14.10;7.77;;;5.90;99.90;;;6.16;72.46;98681.59;5040193;28;20344;-42
2021/12/14 11:31:29;;;;;;;18.17;9.53;;;6.00;99.90;;;6.22;72.58;98678.56;5038114;28;20049;-44
2021/12/14 11:34:11;;;;;;;33.17;10.50;;;6.00;99.90;;;6.30;72.74;98675.34;5025621;28;20374;-46
2021/12/14 11:36:54;;;;;;;16.70;8.10;;;6.10;99.90;;;6.37;72.34;98675.75;5011503;28;20056;-45
2021/12/14 11:39:28;;;;;;;14.00;8.67;;;6.20;99.90;;;6.44;73.03;98677.84;5008742;28;20056;-44
2021/12/14 11:42:06;;;;;;;17.10;8.30;;;6.30;99.90;;;6.49;72.73;98682.81;5008109;28;20050;-47
2021/12/14 11:44:51;;;;;;;12.00;7.60;;;6.40;99.90;;;6.53;72.55;98681.63;5007794;28;20728;-44
2021/12/14 11:50:37;;;;;;;12.73;8.73;;;6.40;99.90;;;6.52;71.86;98672.03;5007336;28;20048;-45
2021/12/14 11:53:13;;;;;;;13.83;9.27;;;6.30;99.90;;;6.53;72.12;98670.22;5007714;28;20067;-45
2021/12/14 11:56:06;;;;;;;16.13;7.67;;;6.30;99.90;;;6.54;72.79;98666.63;5007619;28;20064;-45
2021/12/14 11:58:50;;;;;;;14.00;8.43;;;6.30;99.90;;;6.55;72.03;98671.78;5007291;28;20362;-44